createdAt,value
2019-02-26T00:02:19.771Z,3.41
2019-02-26T00:04:52.128Z,3.41
2019-02-26T00:07:25.726Z,3.41
2019-02-26T00:09:59.464Z,3.37
2019-02-26T00:12:33.187Z,3.39
2019-02-26T00:15:04.000Z,3.37
2019-02-26T00:17:38.537Z,3.36
2019-02-26T00:20:10.922Z,3.29
2019-02-26T00:22:43.617Z,3.35
2019-02-26T00:25:17.840Z,3.31
2019-02-26T00:27:49.479Z,3.36
2019-02-26T00:30:21.962Z,3.29
2019-02-26T00:32:55.474Z,3.34
2019-02-26T00:35:27.709Z,3.34
2019-02-26T00:37:59.435Z,3.36
2019-02-26T00:40:32.659Z,3.26
2019-02-26T00:43:06.574Z,3.22
2019-02-26T00:45:39.058Z,3.33
2019-02-26T00:48:10.903Z,3.22
2019-02-26T00:50:42.604Z,3.26
2019-02-26T00:53:17.106Z,3.27
2019-02-26T00:55:47.010Z,3.30
2019-02-26T00:58:18.331Z,3.39
2019-02-26T01:00:50.005Z,3.40
2019-02-26T01:03:21.637Z,3.34
2019-02-26T01:05:53.006Z,3.34
2019-02-26T01:08:24.345Z,3.30
2019-02-26T01:10:57.060Z,3.23
2019-02-26T01:13:30.080Z,3.25
2019-02-26T01:16:02.396Z,3.25
2019-02-26T01:18:34.387Z,3.26
2019-02-26T01:21:05.972Z,3.20
2019-02-26T01:23:37.264Z,3.26
2019-02-26T01:26:10.062Z,3.32
2019-02-26T01:28:44.139Z,3.39
2019-02-26T01:31:15.080Z,3.38
2019-02-26T01:33:48.534Z,3.30
2019-02-26T01:36:22.740Z,3.25
2019-02-26T01:38:53.610Z,3.17
2019-02-26T01:41:26.887Z,3.14
2019-02-26T01:43:58.033Z,3.19
2019-02-26T01:46:30.008Z,3.14
2019-02-26T01:49:04.362Z,3.17
2019-02-26T01:51:35.742Z,3.13
2019-02-26T01:54:08.072Z,3.13
2019-02-26T01:56:40.050Z,3.10
2019-02-26T01:59:11.346Z,3.04
2019-02-26T02:01:44.693Z,2.99
2019-02-26T02:04:17.132Z,2.95
2019-02-26T02:06:49.173Z,2.92
2019-02-26T02:09:22.582Z,2.90
2019-02-26T02:11:53.679Z,2.84
2019-02-26T02:14:25.665Z,2.80
2019-02-26T02:16:57.621Z,2.79
2019-02-26T02:19:30.080Z,2.73
2019-02-26T02:22:02.916Z,2.71
2019-02-26T02:24:39.019Z,2.60
2019-02-26T02:27:07.830Z,2.56
2019-02-26T02:36:03.985Z,2.42
2019-02-26T02:38:37.123Z,2.31
2019-02-26T02:41:08.488Z,2.28
2019-02-26T02:43:39.978Z,2.22
2019-02-26T02:46:11.510Z,2.15
2019-02-26T02:48:44.121Z,2.11
2019-02-26T02:51:15.913Z,2.07
2019-02-26T02:53:47.858Z,2.00
2019-02-26T02:56:20.125Z,1.97
2019-02-26T02:58:51.814Z,1.95
2019-02-26T03:01:25.836Z,1.89
2019-02-26T03:03:58.430Z,1.80
2019-02-26T03:06:32.602Z,1.79
2019-02-26T03:09:06.937Z,1.70
2019-02-26T03:11:41.360Z,1.73
2019-02-26T03:14:13.987Z,1.59
2019-02-26T03:16:47.941Z,1.66
2019-02-26T03:19:18.809Z,1.70
2019-02-26T03:21:52.436Z,1.72
2019-02-26T03:24:25.584Z,1.69
2019-02-26T03:26:56.038Z,1.68
2019-02-26T03:29:28.334Z,1.67
2019-02-26T03:31:59.954Z,1.64
2019-02-26T03:34:32.110Z,1.62
2019-02-26T03:37:05.639Z,1.59
2019-02-26T03:39:36.377Z,1.54
2019-02-26T03:42:10.481Z,1.53
2019-02-26T03:44:44.041Z,1.54
2019-02-26T03:47:16.304Z,1.51
2019-02-26T03:49:48.051Z,1.48
2019-02-26T03:52:19.422Z,1.49
2019-02-26T03:54:50.973Z,1.46
2019-02-26T03:57:24.674Z,1.45
2019-02-26T03:59:55.307Z,1.36
2019-02-26T04:02:26.775Z,1.30
2019-02-26T04:05:00.776Z,1.26
2019-02-26T04:07:33.341Z,1.25
2019-02-26T04:10:05.503Z,1.34
2019-02-26T04:12:41.889Z,1.32
2019-02-26T04:15:12.736Z,1.25
2019-02-26T04:17:44.718Z,1.28
2019-02-26T04:20:17.884Z,1.27
2019-02-26T04:22:49.886Z,1.23
2019-02-26T04:26:08.138Z,1.25
2019-02-26T04:29:38.018Z,1.25
2019-02-26T04:33:19.698Z,1.27
2019-02-26T04:36:34.795Z,1.24
2019-02-26T04:40:14.161Z,1.19
2019-02-26T04:43:27.920Z,1.10
2019-02-26T04:47:05.897Z,1.14
2019-02-26T04:49:40.211Z,1.12
2019-02-26T04:52:14.043Z,1.03
2019-02-26T04:54:44.035Z,0.96
2019-02-26T04:57:15.299Z,1.05
2019-02-26T04:59:46.909Z,0.89
2019-02-26T05:02:18.141Z,0.89
2019-02-26T05:04:49.507Z,0.86
2019-02-26T05:07:20.734Z,0.88
2019-02-26T05:09:53.843Z,0.85
2019-02-26T05:12:30.311Z,0.79
2019-02-26T05:14:59.989Z,0.83
2019-02-26T05:17:33.300Z,0.88
2019-02-26T05:20:06.260Z,0.78
2019-02-26T05:22:37.336Z,0.80
2019-02-26T05:25:13.385Z,0.81
2019-02-26T05:27:44.753Z,0.76
2019-02-26T05:30:17.250Z,0.77
2019-02-26T05:32:50.839Z,0.73
2019-02-26T05:35:23.263Z,0.75
2019-02-26T05:37:56.219Z,0.75
2019-02-26T05:40:27.981Z,0.71
2019-02-26T05:43:01.258Z,0.75
2019-02-26T05:45:35.466Z,0.68
2019-02-26T05:48:05.244Z,0.80
2019-02-26T05:50:38.658Z,0.79
2019-02-26T05:53:12.732Z,0.81
2019-02-26T05:55:47.060Z,0.77
2019-02-26T05:58:19.289Z,0.74
2019-02-26T06:00:50.307Z,0.68
2019-02-26T06:03:21.866Z,0.76
2019-02-26T06:05:55.624Z,0.77
2019-02-26T06:08:29.513Z,0.75
2019-02-26T06:10:59.487Z,0.74
2019-02-26T06:13:34.451Z,0.81
2019-02-26T06:16:07.282Z,0.87
2019-02-26T06:18:41.973Z,0.85
2019-02-26T06:21:16.493Z,0.79
2019-02-26T06:23:55.305Z,0.63
2019-02-26T06:26:30.311Z,0.66
2019-02-26T06:29:00.568Z,0.74
2019-02-26T06:31:31.836Z,0.79
2019-02-26T06:34:06.440Z,0.65
2019-02-26T06:36:38.123Z,0.58
2019-02-26T06:39:09.920Z,0.58
2019-02-26T06:41:41.915Z,0.67
2019-02-26T06:44:14.275Z,0.67
2019-02-26T06:46:45.860Z,0.68
2019-02-26T06:49:20.098Z,0.68
2019-02-26T06:51:52.183Z,0.81
2019-02-26T06:54:28.939Z,0.86
2019-02-26T06:56:59.835Z,0.95
2019-02-26T06:59:34.394Z,1.01
2019-02-26T07:02:05.185Z,1.06
2019-02-26T07:04:36.834Z,1.16
2019-02-26T07:07:12.226Z,1.20
2019-02-26T07:09:43.772Z,1.34
2019-02-26T07:12:16.883Z,1.41
2019-02-26T07:14:49.134Z,1.46
2019-02-26T07:17:21.374Z,1.63
2019-02-26T07:19:53.866Z,1.79
2019-02-26T07:22:26.575Z,1.89
2019-02-26T07:24:58.137Z,2.00
2019-02-26T07:27:31.541Z,2.16
2019-02-26T07:30:03.045Z,2.25
2019-02-26T07:32:35.914Z,2.40
2019-02-26T07:35:11.057Z,2.44
2019-02-26T07:37:42.353Z,2.72
2019-02-26T07:40:16.117Z,2.87
2019-02-26T07:42:49.215Z,2.99
2019-02-26T07:45:22.924Z,3.22
2019-02-26T07:47:55.985Z,3.38
2019-02-26T07:50:31.404Z,3.59
2019-02-26T07:53:00.814Z,3.88
2019-02-26T07:55:32.715Z,4.02
2019-02-26T07:58:06.305Z,4.13
2019-02-26T08:00:47.150Z,4.33
2019-02-26T08:03:19.178Z,4.49
2019-02-26T08:05:50.868Z,4.89
2019-02-26T08:08:22.129Z,5.14
2019-02-26T08:10:53.436Z,5.18
2019-02-26T08:13:26.880Z,5.20
2019-02-26T08:16:00.018Z,5.71
2019-02-26T08:18:31.554Z,5.91
2019-02-26T08:21:04.893Z,6.09
2019-02-26T08:23:36.747Z,6.19
2019-02-26T08:26:08.647Z,6.49
2019-02-26T08:28:41.927Z,6.78
2019-02-26T08:31:15.495Z,7.52
2019-02-26T08:33:48.954Z,7.76
2019-02-26T08:36:19.525Z,8.46
2019-02-26T08:38:52.040Z,8.66
2019-02-26T08:41:23.719Z,9.18
2019-02-26T08:43:58.704Z,9.52
2019-02-26T08:46:30.221Z,10.25
2019-02-26T08:49:08.249Z,10.44
2019-02-26T08:51:35.487Z,10.81
2019-02-26T08:54:07.149Z,11.29
2019-02-26T08:56:38.733Z,11.49
2019-02-26T08:59:11.519Z,11.85
2019-02-26T09:01:43.060Z,12.31
2019-02-26T09:04:16.822Z,12.54
2019-02-26T09:06:47.599Z,12.62
2019-02-26T09:09:20.995Z,13.23
2019-02-26T09:11:53.345Z,12.65
2019-02-26T09:14:26.176Z,12.78
2019-02-26T09:16:59.710Z,12.97
2019-02-26T09:19:32.884Z,13.87
2019-02-26T09:22:03.911Z,13.79
2019-02-26T09:24:35.525Z,13.85
2019-02-26T09:27:06.810Z,14.68
2019-02-26T09:29:39.809Z,15.37
2019-02-26T09:32:12.075Z,14.98
2019-02-26T09:34:45.161Z,14.97
2019-02-26T09:37:16.420Z,15.78
2019-02-26T09:39:48.017Z,15.73
2019-02-26T09:42:21.069Z,16.01
2019-02-26T09:44:55.345Z,16.53
2019-02-26T09:47:31.549Z,16.66
2019-02-26T09:50:02.817Z,16.68
2019-02-26T09:52:34.708Z,16.84
2019-02-26T09:55:07.580Z,17.03
2019-02-26T09:57:39.174Z,17.03
2019-02-26T10:00:22.091Z,17.61
2019-02-26T10:02:52.074Z,17.67
2019-02-26T10:05:23.899Z,17.71
2019-02-26T10:07:59.307Z,17.75
2019-02-26T10:10:31.195Z,18.00
2019-02-26T10:13:04.560Z,18.51
2019-02-26T10:15:37.312Z,18.86
2019-02-26T10:18:09.297Z,18.21
2019-02-26T10:20:44.101Z,18.39
2019-02-26T10:23:14.525Z,18.25
2019-02-26T10:25:45.873Z,18.11
2019-02-26T10:28:19.006Z,17.91
2019-02-26T10:30:50.169Z,17.95
2019-02-26T10:33:21.670Z,17.98
2019-02-26T10:35:53.609Z,18.53
2019-02-26T10:38:29.615Z,19.14
2019-02-26T10:41:01.668Z,19.31
2019-02-26T10:43:32.328Z,18.96
2019-02-26T10:46:03.730Z,18.94
2019-02-26T10:48:36.307Z,19.05
2019-02-26T10:51:08.124Z,18.46
2019-02-26T10:53:39.379Z,18.80
2019-02-26T10:56:11.857Z,19.06
2019-02-26T10:58:43.423Z,19.34
2019-02-26T11:01:17.666Z,19.50
2019-02-26T11:03:49.463Z,19.83
2019-02-26T11:06:22.084Z,19.60
2019-02-26T11:08:55.755Z,19.45
2019-02-26T11:11:29.996Z,19.66
2019-02-26T11:14:01.217Z,19.91
2019-02-26T11:16:33.094Z,20.06
2019-02-26T11:19:07.543Z,19.89
2019-02-26T11:21:39.342Z,19.88
2019-02-26T11:24:11.295Z,19.84
2019-02-26T11:26:43.890Z,19.84
2019-02-26T11:29:15.627Z,19.61
2019-02-26T11:31:49.574Z,19.44
2019-02-26T11:34:20.899Z,19.51
2019-02-26T11:36:54.169Z,20.45
2019-02-26T11:39:25.687Z,20.71
2019-02-26T11:41:59.507Z,20.73
2019-02-26T11:44:31.761Z,20.32
2019-02-26T11:47:02.990Z,20.32
2019-02-26T11:49:37.009Z,21.05
2019-02-26T11:52:08.059Z,20.75
2019-02-26T11:54:40.264Z,20.02
2019-02-26T11:57:13.407Z,20.63
2019-02-26T11:59:46.094Z,21.03
2019-02-26T12:02:25.217Z,21.09
2019-02-26T12:04:51.550Z,21.66
2019-02-26T12:07:24.715Z,21.66
2019-02-26T12:09:57.955Z,21.83
2019-02-26T12:12:31.163Z,21.67
2019-02-26T12:15:04.345Z,21.24
2019-02-26T12:17:37.786Z,21.76
2019-02-26T12:20:14.632Z,22.34
2019-02-26T12:22:47.939Z,22.98
2019-02-26T12:25:18.485Z,22.69
2019-02-26T12:27:49.800Z,23.37
2019-02-26T12:30:21.958Z,23.93
2019-02-26T12:32:55.117Z,23.85
2019-02-26T12:35:26.259Z,21.95
2019-02-26T12:37:59.337Z,22.74
2019-02-26T12:40:31.223Z,22.44
2019-02-26T12:43:05.499Z,22.94
2019-02-26T12:45:38.654Z,23.28
2019-02-26T12:48:12.579Z,22.93
2019-02-26T12:50:42.854Z,22.01
2019-02-26T12:53:17.237Z,22.10
2019-02-26T12:55:47.512Z,22.82
2019-02-26T12:58:23.697Z,23.26
2019-02-26T13:00:54.122Z,21.92
2019-02-26T13:03:25.449Z,22.33
2019-02-26T13:05:56.749Z,21.89
2019-02-26T13:08:28.411Z,21.84
2019-02-26T13:10:59.682Z,22.02
2019-02-26T13:13:31.713Z,21.73
2019-02-26T13:16:04.258Z,21.73
2019-02-26T13:18:36.027Z,21.80
2019-02-26T13:21:11.035Z,21.36
2019-02-26T13:23:41.616Z,21.33
2019-02-26T13:26:15.327Z,21.04
2019-02-26T13:28:52.609Z,20.98
2019-02-26T13:31:22.491Z,19.89
2019-02-26T13:33:53.832Z,19.42
2019-02-26T13:36:25.637Z,19.17
2019-02-26T13:38:57.252Z,19.01
2019-02-26T13:41:30.262Z,18.95
2019-02-26T13:44:01.646Z,18.43
2019-02-26T13:46:32.924Z,18.35
2019-02-26T13:49:04.632Z,17.80
2019-02-26T13:51:36.176Z,17.70
2019-02-26T13:54:07.543Z,17.45
2019-02-26T13:56:39.145Z,17.20
2019-02-26T13:59:10.881Z,17.20
2019-02-26T14:01:42.241Z,16.89
2019-02-26T14:04:13.851Z,16.56
2019-02-26T14:06:45.538Z,16.51
2019-02-26T14:09:16.819Z,16.51
2019-02-26T14:11:48.116Z,16.35
2019-02-26T14:14:19.481Z,16.34
2019-02-26T14:16:51.186Z,16.14
2019-02-26T14:19:22.451Z,16.04
2019-02-26T14:21:54.041Z,15.77
2019-02-26T14:24:29.170Z,15.73
2019-02-26T14:27:00.417Z,15.58
2019-02-26T14:29:32.027Z,15.49
2019-02-26T14:32:03.325Z,15.42
2019-02-26T14:34:34.609Z,15.35
2019-02-26T14:37:05.971Z,15.21
2019-02-26T14:39:37.243Z,15.12
2019-02-26T14:42:08.578Z,15.05
2019-02-26T14:44:40.053Z,15.07
2019-02-26T14:47:11.657Z,15.03
2019-02-26T14:49:43.029Z,14.98
2019-02-26T14:52:14.719Z,14.91
2019-02-26T14:54:46.027Z,14.86
2019-02-26T14:57:18.294Z,14.80
2019-02-26T14:59:49.663Z,14.75
2019-02-26T15:02:21.207Z,14.73
2019-02-26T15:04:52.931Z,14.68
2019-02-26T15:07:24.277Z,14.66
2019-02-26T15:09:55.514Z,14.60
2019-02-26T15:12:26.727Z,14.57
2019-02-26T15:14:58.570Z,14.57
2019-02-26T15:17:30.056Z,14.52
2019-02-26T15:20:01.334Z,14.50
2019-02-26T15:22:33.158Z,14.45
2019-02-26T15:25:04.595Z,14.41
2019-02-26T15:27:38.820Z,14.34
2019-02-26T15:30:10.843Z,14.29
2019-02-26T15:32:42.813Z,14.22
2019-02-26T15:35:14.481Z,14.17
2019-02-26T15:37:46.488Z,14.12
2019-02-26T15:40:17.835Z,14.08
2019-02-26T15:42:52.279Z,14.00
2019-02-26T15:45:24.024Z,13.95
2019-02-26T15:47:55.514Z,13.88
2019-02-26T15:50:26.777Z,13.82
2019-02-26T15:52:58.162Z,13.78
2019-02-26T15:55:29.557Z,13.65
2019-02-26T15:58:03.987Z,13.59
2019-02-26T16:00:37.601Z,13.59
2019-02-26T16:03:07.382Z,13.50
2019-02-26T16:05:38.702Z,13.45
2019-02-26T16:08:10.307Z,13.38
2019-02-26T16:10:41.641Z,13.25
2019-02-26T16:13:12.869Z,13.17
2019-02-26T16:15:44.228Z,13.12
2019-02-26T16:18:16.253Z,13.10
2019-02-26T16:20:47.521Z,13.00
2019-02-26T16:23:18.897Z,12.95
2019-02-26T16:25:50.223Z,12.86
2019-02-26T16:28:21.850Z,12.76
2019-02-26T16:30:55.674Z,12.67
2019-02-26T16:33:26.859Z,12.60
2019-02-26T16:35:58.397Z,12.52
2019-02-26T16:38:30.088Z,12.46
2019-02-26T16:41:02.834Z,12.39
2019-02-26T16:43:35.084Z,12.29
2019-02-26T16:46:08.595Z,12.22
2019-02-26T16:48:40.424Z,12.13
2019-02-26T16:51:12.357Z,12.00
2019-02-26T16:53:44.405Z,11.82
2019-02-26T16:56:16.085Z,11.74
2019-02-26T16:58:47.347Z,11.63
2019-02-26T17:01:19.706Z,11.44
2019-02-26T17:03:51.918Z,11.26
2019-02-26T17:06:24.102Z,11.07
2019-02-26T17:08:55.391Z,10.92
2019-02-26T17:11:27.390Z,10.87
2019-02-26T17:13:58.956Z,10.75
2019-02-26T17:16:31.909Z,10.64
2019-02-26T17:19:03.248Z,10.37
2019-02-26T17:21:35.660Z,10.37
2019-02-26T17:24:07.277Z,10.35
2019-02-26T17:26:38.555Z,10.36
2019-02-26T17:29:10.342Z,10.31
2019-02-26T17:31:42.261Z,10.19
2019-02-26T17:34:13.826Z,9.99
2019-02-26T17:36:45.292Z,9.95
2019-02-26T17:39:17.107Z,9.83
2019-02-26T17:41:48.402Z,9.77
2019-02-26T17:44:19.794Z,9.64
2019-02-26T17:46:51.127Z,9.52
2019-02-26T17:49:22.407Z,9.46
2019-02-26T17:51:53.695Z,9.39
2019-02-26T17:54:25.237Z,9.31
2019-02-26T17:56:57.632Z,9.31
2019-02-26T17:59:29.867Z,9.21
2019-02-26T18:02:01.218Z,9.06
2019-02-26T18:04:32.963Z,9.02
2019-02-26T18:07:04.389Z,8.99
2019-02-26T18:09:36.025Z,8.91
2019-02-26T18:12:07.503Z,8.79
2019-02-26T18:14:39.401Z,8.71
2019-02-26T18:17:11.590Z,8.64
2019-02-26T18:19:43.214Z,8.58
2019-02-26T18:22:14.763Z,8.52
2019-02-26T18:24:46.064Z,8.43
2019-02-26T18:27:17.319Z,8.33
2019-02-26T18:29:48.623Z,8.27
2019-02-26T18:32:19.928Z,8.20
2019-02-26T18:34:51.186Z,8.12
2019-02-26T18:37:22.771Z,8.04
2019-02-26T18:39:55.221Z,7.99
2019-02-26T18:42:26.644Z,7.98
2019-02-26T18:44:58.197Z,7.82
2019-02-26T18:47:29.612Z,7.70
2019-02-26T18:50:00.913Z,7.66
2019-02-26T18:52:32.330Z,7.64
2019-02-26T18:55:03.684Z,7.52
2019-02-26T18:57:34.951Z,7.51
2019-02-26T19:00:07.493Z,7.42
2019-02-26T19:02:38.778Z,7.41
2019-02-26T19:05:11.553Z,7.43
2019-02-26T19:07:43.241Z,7.43
2019-02-26T19:10:19.450Z,7.37
2019-02-26T19:12:48.974Z,7.33
2019-02-26T19:15:20.723Z,7.25
2019-02-26T19:17:53.937Z,7.13
2019-02-26T19:20:27.885Z,7.16
2019-02-26T19:22:59.577Z,7.12
2019-02-26T19:25:30.841Z,7.08
2019-02-26T19:28:02.166Z,7.10
2019-02-26T19:30:36.760Z,7.03
2019-02-26T19:33:06.412Z,6.98
2019-02-26T19:35:40.428Z,6.99
2019-02-26T19:38:10.883Z,6.93
2019-02-26T19:40:43.727Z,6.92
2019-02-26T19:43:14.982Z,6.87
2019-02-26T19:45:46.271Z,6.82
2019-02-26T19:48:17.593Z,6.79
2019-02-26T19:50:49.247Z,6.76
2019-02-26T19:53:22.242Z,6.71
2019-02-26T19:55:53.665Z,6.71
2019-02-26T19:58:25.617Z,6.66
2019-02-26T20:00:57.316Z,6.56
2019-02-26T20:03:39.274Z,6.46
2019-02-26T20:06:01.826Z,6.47
2019-02-26T20:08:33.412Z,6.41
2019-02-26T20:11:05.234Z,6.33
2019-02-26T20:13:42.043Z,6.26
2019-02-26T20:16:10.115Z,6.31
2019-02-26T20:18:42.283Z,6.14
2019-02-26T20:21:14.015Z,6.12
2019-02-26T20:23:45.915Z,5.91
2019-02-26T20:26:17.445Z,5.95
2019-02-26T20:28:49.153Z,5.92
2019-02-26T20:31:21.871Z,5.88
2019-02-26T20:33:53.799Z,5.83
2019-02-26T20:36:25.295Z,5.79
2019-02-26T20:38:56.641Z,5.73
2019-02-26T20:41:27.956Z,5.63
2019-02-26T20:43:59.291Z,5.59
2019-02-26T20:46:30.538Z,5.55
2019-02-26T20:49:02.201Z,5.56
2019-02-26T20:51:33.808Z,5.45
2019-02-26T20:54:05.085Z,5.41
2019-02-26T20:56:36.751Z,5.37
2019-02-26T20:59:08.087Z,5.20
2019-02-26T21:01:40.172Z,5.20
2019-02-26T21:04:11.472Z,5.18
2019-02-26T21:10:30.285Z,5.10
2019-02-26T21:13:02.495Z,5.04
2019-02-26T21:15:34.001Z,5.01
2019-02-26T21:18:05.495Z,5.02
2019-02-26T21:20:38.845Z,5.02
2019-02-26T21:23:12.073Z,4.93
2019-02-26T21:25:44.460Z,4.88
2019-02-26T21:28:16.922Z,4.88
2019-02-26T21:37:13.263Z,4.86
2019-02-26T21:39:44.958Z,4.78
2019-02-26T21:42:16.317Z,4.63
2019-02-26T21:44:49.026Z,4.48
2019-02-26T21:47:20.352Z,4.49
2019-02-26T21:49:52.099Z,4.52
2019-02-26T21:52:23.953Z,4.50
2019-02-26T21:54:57.512Z,4.52
2019-02-26T21:57:29.395Z,4.41
2019-02-26T22:00:05.423Z,4.50
2019-02-26T22:02:36.809Z,4.45
2019-02-26T22:05:08.765Z,4.39
2019-02-26T22:07:40.442Z,4.43
2019-02-26T22:10:13.644Z,4.39
2019-02-26T22:12:45.106Z,4.38
2019-02-26T22:15:17.024Z,4.06
2019-02-26T22:17:48.353Z,4.06
2019-02-26T22:20:35.411Z,4.08
2019-02-26T22:22:52.848Z,4.10
2019-02-26T22:25:24.499Z,4.02
2019-02-26T22:27:56.343Z,3.87
2019-02-26T22:30:28.090Z,3.73
2019-02-26T22:32:59.731Z,3.86
2019-02-26T22:35:31.106Z,3.82
2019-02-26T22:38:02.801Z,3.90
2019-02-26T22:40:34.312Z,3.84
2019-02-26T22:43:05.697Z,3.75
2019-02-26T22:45:37.085Z,3.77
2019-02-26T22:48:08.974Z,3.69
2019-02-26T22:50:41.059Z,3.61
2019-02-26T22:53:12.860Z,3.56
2019-02-26T22:55:44.676Z,3.48
2019-02-26T22:58:15.983Z,3.32
2019-02-26T23:01:14.522Z,3.29
2019-02-26T23:03:46.574Z,3.24
2019-02-26T23:06:18.556Z,3.33
2019-02-26T23:08:50.079Z,3.27
2019-02-26T23:11:21.819Z,3.23
2019-02-26T23:13:53.132Z,3.17
2019-02-26T23:16:25.464Z,3.09
2019-02-26T23:18:57.533Z,2.99
2019-02-26T23:21:28.852Z,2.96
2019-02-26T23:24:00.645Z,2.94
2019-02-26T23:26:32.990Z,2.96
2019-02-26T23:29:04.281Z,2.96
2019-02-26T23:31:35.678Z,2.93
2019-02-26T23:34:08.007Z,2.91
2019-02-26T23:36:39.723Z,2.80
2019-02-26T23:39:14.663Z,2.80
2019-02-26T23:41:46.272Z,2.79
2019-02-26T23:44:18.619Z,2.73
2019-02-26T23:46:50.160Z,2.69
2019-02-26T23:49:21.888Z,2.70
2019-02-26T23:51:53.859Z,2.65
2019-02-26T23:54:26.491Z,2.64
2019-02-26T23:56:57.956Z,2.59
2019-02-26T23:59:30.096Z,2.54
